Time;durP1;ratioP1;P1;durP2;ratioP2;P2;SDS_P1;SDS_P2;PMS_P1;PMS_P2;Temp;Humidity;BMP_temperature;BMP_pressure;BME280_temperature;BME280_humidity;BME280_pressure;Samples;Min_cycle;Max_cycle;Signal;HPM_P1;HPM_P2
2022/07/11 00:02:24;;;;;;;1.75;1.25;;;27.00;67.70;;;;;;5055714;28;20075;-86
2022/07/11 00:04:49;;;;;;;2.22;1.15;;;26.90;67.60;;;;;;5045243;28;20429;-85
2022/07/11 00:07:15;;;;;;;4.80;1.80;;;26.90;67.40;;;;;;5046649;28;20083;-85
2022/07/11 00:09:41;;;;;;;2.83;1.35;;;26.90;67.20;;;;;;5052709;28;20473;-87
2022/07/11 00:12:09;;;;;;;1.55;1.13;;;26.90;67.10;;;;;;5055715;28;20044;-86
2022/07/11 00:14:35;;;;;;;5.97;1.33;;;26.80;67.00;;;;;;5044021;28;20096;-82
2022/07/11 00:17:01;;;;;;;2.33;1.13;;;26.70;66.90;;;;;;5038951;28;20091;-83
2022/07/11 00:19:27;;;;;;;2.05;1.38;;;26.70;66.80;;;;;;5038247;28;20029;-85
2022/07/11 00:21:53;;;;;;;4.35;1.48;;;26.70;66.90;;;;;;5030115;28;20033;-86
2022/07/11 00:24:19;;;;;;;5.10;2.10;;;26.70;66.60;;;;;;5045747;28;20037;-86
2022/07/11 00:26:49;;;;;;;2.10;1.23;;;26.70;66.50;;;;;;5049569;28;20538;-85
2022/07/11 00:29:15;;;;;;;1.55;1.23;;;26.70;66.50;;;;;;5038522;28;20021;-84
2022/07/11 00:31:40;;;;;;;2.00;1.10;;;26.70;66.40;;;;;;5049415;28;20041;-84
2022/07/11 00:34:06;;;;;;;1.88;1.20;;;26.70;66.20;;;;;;5054878;28;20027;-81
2022/07/11 00:36:32;;;;;;;6.10;1.50;;;26.70;65.80;;;;;;5047318;28;20120;-83
2022/07/11 00:38:59;;;;;;;1.92;1.23;;;26.70;65.60;;;;;;5048923;28;20033;-83
2022/07/11 00:41:24;;;;;;;2.25;1.38;;;26.70;65.50;;;;;;5045584;28;20052;-83
2022/07/11 00:43:53;;;;;;;2.20;1.38;;;26.70;65.40;;;;;;5040959;28;20033;-83
2022/07/11 00:46:20;;;;;;;2.00;1.05;;;26.70;65.40;;;;;;5046344;28;20477;-83
2022/07/11 00:48:46;;;;;;;2.08;1.30;;;26.70;65.20;;;;;;5042187;28;20021;-82
2022/07/11 00:51:12;;;;;;;2.95;1.25;;;26.70;65.10;;;;;;5047934;28;20090;-82
2022/07/11 00:53:39;;;;;;;2.17;1.27;;;26.60;64.90;;;;;;5054214;28;20469;-81
2022/07/11 00:56:06;;;;;;;3.45;1.40;;;26.60;65.50;;;;;;5047782;28;20056;-83
2022/07/11 00:58:33;;;;;;;2.13;1.50;;;26.60;65.30;;;;;;5047137;28;20025;-84
2022/07/11 01:00:58;;;;;;;2.22;1.30;;;26.50;64.70;;;;;;5052603;28;20369;-83
2022/07/11 01:03:24;;;;;;;1.50;1.08;;;26.50;65.20;;;;;;5039319;28;20036;-83
2022/07/11 01:05:50;;;;;;;2.80;1.05;;;26.40;64.70;;;;;;5049687;28;20041;-82
2022/07/11 01:08:16;;;;;;;8.32;1.40;;;26.40;64.60;;;;;;5043567;28;20030;-83
2022/07/11 01:10:41;;;;;;;3.28;1.25;;;26.40;64.60;;;;;;5034561;28;20028;-82
2022/07/11 01:13:08;;;;;;;1.48;1.08;;;26.40;64.50;;;;;;5050737;28;20112;-82
2022/07/11 01:15:36;;;;;;;1.92;1.10;;;26.30;64.40;;;;;;5038870;28;20386;-84
2022/07/11 01:18:03;;;;;;;2.10;1.33;;;26.30;64.40;;;;;;5047806;28;20684;-82
2022/07/11 01:20:29;;;;;;;3.85;1.30;;;26.20;64.30;;;;;;5045150;28;20107;-85
2022/07/11 01:23:01;;;;;;;1.65;0.90;;;26.20;64.30;;;;;;5040152;28;20529;-85
2022/07/11 01:25:30;;;;;;;2.10;1.00;;;26.20;64.20;;;;;;5050806;28;20065;-85
2022/07/11 01:28:00;;;;;;;1.20;0.88;;;26.20;64.10;;;;;;5043539;28;20033;-85
2022/07/11 01:30:27;;;;;;;1.67;1.10;;;26.20;64.10;;;;;;5052226;28;20048;-85
2022/07/11 01:32:53;;;;;;;2.60;1.02;;;26.20;64.10;;;;;;5038682;28;20021;-84
2022/07/11 01:35:20;;;;;;;1.67;0.98;;;26.20;64.20;;;;;;5051283;28;20037;-85
2022/07/11 01:37:45;;;;;;;1.90;1.13;;;26.20;64.30;;;;;;5039193;28;20033;-83
2022/07/11 01:40:11;;;;;;;2.13;1.15;;;26.10;64.20;;;;;;5044359;28;20382;-84
2022/07/11 01:42:37;;;;;;;2.03;1.35;;;26.10;64.20;;;;;;5044921;28;20033;-84
2022/07/11 01:45:03;;;;;;;3.95;1.30;;;26.00;64.40;;;;;;5021146;28;20116;-85
2022/07/11 01:47:29;;;;;;;2.78;1.10;;;26.00;64.30;;;;;;5035335;28;20124;-85
2022/07/11 01:49:55;;;;;;;2.22;1.20;;;26.10;64.40;;;;;;5040860;28;20047;-85
2022/07/11 01:52:21;;;;;;;1.10;0.90;;;26.10;64.40;;;;;;5046105;28;20102;-85
2022/07/11 01:54:47;;;;;;;2.55;1.33;;;26.10;64.20;;;;;;5045646;28;20103;-85
2022/07/11 01:57:13;;;;;;;6.05;1.42;;;26.10;64.30;;;;;;5038405;28;20060;-87
2022/07/11 01:59:39;;;;;;;2.80;1.80;;;26.10;64.40;;;;;;5049949;28;20029;-86
2022/07/11 02:02:05;;;;;;;1.50;1.20;;;26.10;64.40;;;;;;5047681;28;20275;-88
2022/07/11 02:04:31;;;;;;;1.30;0.95;;;26.10;64.30;;;;;;5042040;28;20116;-86
2022/07/11 02:06:56;;;;;;;1.30;0.90;;;26.00;65.00;;;;;;5053974;28;20029;-88
2022/07/11 02:09:22;;;;;;;2.22;0.90;;;26.00;64.50;;;;;;5041860;28;20458;-88
2022/07/11 02:11:48;;;;;;;2.53;1.42;;;26.00;64.50;;;;;;5035282;28;20025;-88
2022/07/11 02:14:13;;;;;;;2.33;1.17;;;26.00;64.60;;;;;;5040457;28;20493;-87
2022/07/11 02:16:40;;;;;;;3.53;1.52;;;26.00;64.70;;;;;;5041517;28;20113;-87
2022/07/11 02:19:06;;;;;;;2.25;1.05;;;26.00;64.80;;;;;;5034539;28;20033;-83
2022/07/11 02:21:32;;;;;;;2.72;1.30;;;25.90;64.70;;;;;;5049730;28;20021;-83
2022/07/11 02:23:58;;;;;;;3.13;1.20;;;25.90;65.00;;;;;;5036900;28;20065;-83
2022/07/11 02:26:24;;;;;;;1.67;1.05;;;25.90;65.10;;;;;;5025528;28;20060;-83
2022/07/11 02:28:50;;;;;;;3.97;1.30;;;25.90;65.10;;;;;;5042086;28;20122;-82
2022/07/11 02:31:15;;;;;;;1.42;1.10;;;25.90;65.20;;;;;;5036979;28;20053;-83
2022/07/11 02:33:41;;;;;;;2.75;1.40;;;25.90;65.30;;;;;;5042141;28;20044;-84
2022/07/11 02:36:07;;;;;;;2.10;1.20;;;25.90;65.30;;;;;;5046683;28;20040;-83
2022/07/11 02:38:37;;;;;;;1.42;1.00;;;25.90;65.30;;;;;;5043309;28;20116;-82
2022/07/11 02:41:03;;;;;;;3.58;1.17;;;25.90;65.30;;;;;;5053051;28;20047;-84
2022/07/11 02:43:28;;;;;;;1.85;1.20;;;25.90;65.30;;;;;;5038706;28;20087;-85
2022/07/11 02:45:55;;;;;;;2.67;1.20;;;25.90;65.40;;;;;;5048069;28;20033;-84
2022/07/11 02:48:21;;;;;;;1.30;1.00;;;25.90;65.50;;;;;;5042228;28;20025;-83
2022/07/11 02:50:47;;;;;;;1.48;1.00;;;25.90;65.60;;;;;;5023446;28;20091;-83
2022/07/11 02:53:13;;;;;;;3.03;1.08;;;25.80;65.70;;;;;;5046529;28;20033;-84
2022/07/11 02:55:39;;;;;;;3.10;1.05;;;25.80;65.90;;;;;;5019220;28;20036;-84
2022/07/11 02:58:05;;;;;;;0.90;0.80;;;25.80;65.90;;;;;;5042700;28;20037;-83
2022/07/11 03:00:31;;;;;;;3.58;1.08;;;25.80;65.90;;;;;;5053019;28;20040;-82
2022/07/11 03:02:57;;;;;;;3.47;1.83;;;25.70;66.60;;;;;;5041896;28;20032;-83
2022/07/11 03:05:22;;;;;;;2.17;0.98;;;25.70;66.40;;;;;;5049237;28;20017;-83
2022/07/11 03:07:48;;;;;;;1.08;0.80;;;25.60;66.70;;;;;;5047117;28;20351;-82
2022/07/11 03:10:14;;;;;;;2.10;1.27;;;25.60;66.60;;;;;;5040608;28;20024;-83
2022/07/11 03:12:41;;;;;;;3.72;1.60;;;25.60;67.10;;;;;;5043653;28;20041;-84
2022/07/11 03:15:07;;;;;;;1.42;0.90;;;25.60;67.20;;;;;;5047527;28;20528;-84
2022/07/11 03:17:34;;;;;;;2.15;1.42;;;25.70;67.00;;;;;;5040038;28;20044;-84
2022/07/11 03:20:00;;;;;;;1.58;0.90;;;25.60;67.70;;;;;;5047202;28;20030;-84
2022/07/11 03:22:26;;;;;;;3.65;1.52;;;25.60;67.10;;;;;;5039547;28;20398;-84
2022/07/11 03:24:52;;;;;;;1.58;1.08;;;25.50;67.80;;;;;;5045640;28;20044;-84
2022/07/11 03:27:18;;;;;;;1.92;1.02;;;25.50;68.10;;;;;;5039498;28;20029;-85
2022/07/11 03:29:44;;;;;;;1.55;0.90;;;25.50;67.50;;;;;;5036863;28;20020;-85
2022/07/11 03:32:09;;;;;;;1.67;0.90;;;25.50;67.50;;;;;;5049620;28;20036;-85
2022/07/11 03:34:36;;;;;;;3.20;1.45;;;25.50;67.50;;;;;;5044173;28;20033;-85
2022/07/11 03:37:01;;;;;;;5.15;1.15;;;25.50;67.80;;;;;;5038296;28;20033;-85
2022/07/11 03:39:27;;;;;;;1.00;0.90;;;25.60;67.40;;;;;;5049379;28;20378;-84
2022/07/11 03:41:53;;;;;;;3.63;1.00;;;25.50;67.20;;;;;;5037228;28;20033;-85
2022/07/11 03:44:19;;;;;;;1.77;1.48;;;25.40;67.20;;;;;;5043672;28;20424;-85
2022/07/11 03:46:45;;;;;;;3.63;1.10;;;25.40;67.10;;;;;;5048240;28;20029;-84
2022/07/11 03:49:10;;;;;;;1.67;0.80;;;25.40;67.60;;;;;;5037726;28;20112;-84
2022/07/11 03:51:36;;;;;;;1.17;0.68;;;25.40;67.00;;;;;;5047630;28;20032;-83
2022/07/11 03:54:02;;;;;;;0.90;0.80;;;25.40;66.90;;;;;;5037701;28;20039;-84
2022/07/11 03:56:28;;;;;;;1.40;0.82;;;25.40;66.90;;;;;;5042671;28;20386;-84
2022/07/11 03:58:53;;;;;;;0.77;0.77;;;25.30;66.60;;;;;;5045354;28;20078;-84
2022/07/11 04:01:19;;;;;;;2.58;0.70;;;25.30;66.50;;;;;;5039708;28;20025;-83
2022/07/11 04:03:46;;;;;;;1.52;1.00;;;25.30;66.40;;;;;;5044290;28;20054;-83
2022/07/11 04:06:13;;;;;;;1.30;0.80;;;25.30;66.10;;;;;;5043845;28;20048;-83
2022/07/11 04:08:39;;;;;;;2.33;1.00;;;25.30;65.60;;;;;;5043286;28;20029;-83
2022/07/11 04:11:05;;;;;;;1.45;0.82;;;25.30;65.60;;;;;;5047041;28;20036;-80
2022/07/11 04:13:31;;;;;;;1.15;0.80;;;25.30;65.50;;;;;;5035179;28;20044;-80
2022/07/11 04:15:57;;;;;;;0.98;0.68;;;25.20;65.80;;;;;;5034634;28;20026;-80
2022/07/11 04:18:22;;;;;;;1.67;0.70;;;25.20;65.20;;;;;;5041399;28;20108;-82
2022/07/11 04:20:49;;;;;;;2.25;0.80;;;25.20;65.10;;;;;;5044240;28;20096;-83
2022/07/11 04:23:16;;;;;;;1.02;0.60;;;25.20;65.00;;;;;;5041084;28;20143;-82
2022/07/11 04:25:42;;;;;;;1.75;0.70;;;25.30;64.70;;;;;;5046615;28;20040;-82
2022/07/11 04:28:08;;;;;;;1.58;0.65;;;25.30;64.30;;;;;;5036832;28;20381;-84
2022/07/11 04:30:34;;;;;;;0.60;0.60;;;25.30;64.00;;;;;;5047324;28;20041;-84
2022/07/11 04:33:00;;;;;;;1.60;0.90;;;25.30;63.80;;;;;;5038657;28;20097;-84
2022/07/11 04:35:30;;;;;;;1.55;0.80;;;25.30;63.80;;;;;;5047027;28;20029;-84
2022/07/11 04:37:56;;;;;;;0.98;0.60;;;25.30;63.70;;;;;;5036425;28;20116;-83
2022/07/11 04:40:23;;;;;;;1.77;0.55;;;25.30;63.80;;;;;;5049976;28;20028;-84
2022/07/11 04:42:49;;;;;;;1.70;0.77;;;25.30;63.90;;;;;;5041086;28;20040;-82
2022/07/11 04:45:15;;;;;;;1.48;1.05;;;25.30;64.10;;;;;;5045326;28;20040;-82
2022/07/11 04:47:41;;;;;;;1.60;0.85;;;25.10;63.80;;;;;;5037717;28;20090;-81
2022/07/11 04:50:08;;;;;;;1.13;0.80;;;25.10;63.70;;;;;;5049649;28;20022;-81
2022/07/11 04:52:34;;;;;;;1.88;1.10;;;25.20;63.80;;;;;;5042650;28;20059;-81
2022/07/11 04:54:59;;;;;;;3.03;0.63;;;25.10;63.50;;;;;;5041649;28;20021;-85
2022/07/11 04:57:26;;;;;;;1.48;0.82;;;25.10;64.10;;;;;;5035605;28;20469;-84
2022/07/11 04:59:52;;;;;;;0.60;0.60;;;25.00;63.60;;;;;;5049060;28;20021;-85
2022/07/11 05:02:17;;;;;;;1.77;0.75;;;25.10;63.80;;;;;;5053559;28;20064;-85
2022/07/11 05:04:44;;;;;;;1.25;0.77;;;25.10;63.70;;;;;;5052983;28;20437;-84
2022/07/11 05:07:09;;;;;;;3.70;1.35;;;25.20;63.40;;;;;;5049526;28;20064;-82
2022/07/11 05:09:35;;;;;;;2.85;1.00;;;25.20;63.00;;;;;;5021456;28;20054;-81
2022/07/11 05:12:01;;;;;;;1.15;0.70;;;25.20;62.70;;;;;;5047069;28;20067;-81
2022/07/11 05:14:27;;;;;;;2.90;0.90;;;25.20;62.50;;;;;;5047419;28;20029;-81
2022/07/11 05:16:52;;;;;;;1.27;0.90;;;25.10;62.30;;;;;;5051347;28;20386;-88
2022/07/11 05:19:18;;;;;;;1.00;0.50;;;25.00;62.40;;;;;;5042932;28;20032;-88
2022/07/11 05:21:44;;;;;;;1.10;0.70;;;25.10;62.50;;;;;;5049484;28;20048;-81
2022/07/11 05:24:09;;;;;;;8.50;0.85;;;25.00;62.40;;;;;;5040657;28;20414;-81
2022/07/11 05:26:36;;;;;;;1.10;0.93;;;25.10;62.50;;;;;;5044338;28;20037;-80
2022/07/11 05:29:01;;;;;;;1.00;0.70;;;25.10;62.50;;;;;;5042482;28;20032;-81
2022/07/11 05:31:27;;;;;;;1.77;0.98;;;25.20;62.40;;;;;;5048293;28;20048;-82
2022/07/11 05:33:53;;;;;;;2.00;0.80;;;25.20;61.90;;;;;;5037645;28;20036;-81
2022/07/11 05:36:19;;;;;;;2.58;1.00;;;25.20;62.10;;;;;;5044381;28;20135;-80
2022/07/11 05:38:45;;;;;;;0.80;0.57;;;25.20;62.00;;;;;;5045534;28;20071;-81
2022/07/11 05:41:10;;;;;;;2.65;0.70;;;25.20;62.20;;;;;;5048843;28;20025;-81
2022/07/11 05:43:36;;;;;;;1.63;1.00;;;25.20;62.40;;;;;;5037846;28;20029;-80
2022/07/11 05:46:05;;;;;;;1.25;0.80;;;25.30;62.00;;;;;;5050669;28;20051;-82
2022/07/11 05:48:31;;;;;;;1.48;0.90;;;25.30;62.10;;;;;;5052324;28;20139;-83
2022/07/11 05:50:56;;;;;;;1.98;0.90;;;25.30;61.90;;;;;;5050891;28;20112;-82
2022/07/11 05:53:22;;;;;;;0.90;0.55;;;25.30;61.70;;;;;;5041967;28;20060;-78
2022/07/11 05:55:48;;;;;;;2.55;0.70;;;25.40;61.90;;;;;;5035428;28;20029;-77
2022/07/11 05:58:14;;;;;;;3.10;0.75;;;25.40;62.00;;;;;;5052915;28;20417;-81
2022/07/11 06:00:40;;;;;;;8.75;1.00;;;25.50;62.10;;;;;;5048907;28;20151;-77
2022/07/11 06:03:06;;;;;;;2.95;0.93;;;25.50;62.40;;;;;;5043459;28;20397;-76
2022/07/11 06:05:32;;;;;;;1.20;0.82;;;25.60;62.40;;;;;;5021960;28;20054;-77
2022/07/11 06:10:42;;;;;;;1.27;0.82;;;25.60;62.00;;;;;;5040495;28;20052;-77
2022/07/11 06:13:08;;;;;;;4.30;0.70;;;25.50;62.20;;;;;;5040605;28;20466;-80
2022/07/11 06:15:34;;;;;;;2.28;0.77;;;25.50;62.00;;;;;;5051466;28;20017;-76
2022/07/11 06:17:59;;;;;;;2.97;1.02;;;25.60;62.10;;;;;;5045118;28;20029;-78
2022/07/11 06:20:25;;;;;;;4.60;1.20;;;25.60;62.10;;;;;;5037358;28;20056;-78
2022/07/11 06:22:50;;;;;;;1.00;0.90;;;25.50;62.00;;;;;;5044133;28;20044;-78
2022/07/11 06:25:16;;;;;;;3.03;0.95;;;25.60;62.10;;;;;;5039574;28;20469;-78
2022/07/11 06:27:42;;;;;;;0.95;0.70;;;25.60;62.40;;;;;;5044335;28;20028;-78
2022/07/11 06:30:08;;;;;;;1.52;0.85;;;25.50;62.20;;;;;;5047800;28;20477;-79
2022/07/11 06:32:33;;;;;;;3.47;1.00;;;25.60;62.30;;;;;;5046277;28;20105;-78
2022/07/11 06:34:59;;;;;;;3.20;1.20;;;25.60;62.30;;;;;;5051721;28;20028;-78
2022/07/11 06:37:25;;;;;;;1.45;0.60;;;25.70;62.70;;;;;;5052877;28;20054;-78
2022/07/11 06:39:51;;;;;;;0.98;0.75;;;25.70;62.50;;;;;;5053256;28;20059;-78
2022/07/11 06:42:16;;;;;;;1.73;0.77;;;25.80;62.50;;;;;;5033999;28;20083;-78
2022/07/11 06:44:42;;;;;;;0.70;0.65;;;25.80;62.10;;;;;;5053287;28;20399;-78
2022/07/11 06:47:08;;;;;;;0.80;0.65;;;25.80;62.10;;;;;;5052468;28;20057;-78
2022/07/11 06:49:34;;;;;;;1.88;0.95;;;25.80;62.10;;;;;;5051625;28;20070;-78
2022/07/11 06:51:59;;;;;;;2.88;0.73;;;25.80;62.40;;;;;;5052068;28;20025;-78
2022/07/11 06:54:25;;;;;;;7.05;1.02;;;25.80;62.20;;;;;;5052934;28;20047;-78
2022/07/11 06:56:51;;;;;;;1.60;1.00;;;25.80;62.60;;;;;;5053828;28;20143;-78
2022/07/11 06:59:16;;;;;;;16.15;2.55;;;25.90;62.20;;;;;;5057256;28;20052;-77
2022/07/11 07:01:43;;;;;;;2.33;0.73;;;25.90;62.20;;;;;;5051761;28;20397;-84
2022/07/11 07:04:09;;;;;;;1.33;0.50;;;25.90;62.40;;;;;;5051796;28;20033;-83
2022/07/11 07:06:34;;;;;;;2.60;0.95;;;25.90;62.40;;;;;;5053661;28;21554;-83
2022/07/11 07:09:03;;;;;;;5.72;0.93;;;25.90;62.30;;;;;;5049382;28;20378;-83
2022/07/11 07:11:28;;;;;;;1.20;0.60;;;25.90;62.40;;;;;;5052578;28;20043;-84
2022/07/11 07:13:54;;;;;;;3.15;0.60;;;26.00;62.20;;;;;;5052115;28;20416;-83
2022/07/11 07:16:20;;;;;;;1.10;0.65;;;26.10;62.30;;;;;;5056109;28;20035;-84
2022/07/11 07:18:46;;;;;;;0.73;0.73;;;26.10;62.10;;;;;;5048487;28;20033;-82
2022/07/11 07:21:12;;;;;;;0.90;0.70;;;26.20;62.00;;;;;;5052065;28;20162;-83
2022/07/11 07:23:38;;;;;;;2.08;0.88;;;26.20;61.60;;;;;;5031975;28;20107;-83
2022/07/11 07:26:04;;;;;;;1.42;0.60;;;26.30;61.70;;;;;;5056076;28;20036;-84
2022/07/11 07:28:30;;;;;;;3.97;0.93;;;26.40;61.70;;;;;;5051797;28;20040;-84
2022/07/11 07:30:56;;;;;;;4.18;0.75;;;26.30;61.30;;;;;;5052202;28;20072;-83
2022/07/11 07:33:22;;;;;;;1.42;0.60;;;26.30;61.60;;;;;;5051394;28;20476;-83
2022/07/11 07:35:48;;;;;;;4.57;0.68;;;26.30;61.60;;;;;;5051688;28;20036;-84
2022/07/11 07:38:13;;;;;;;18.15;1.63;;;26.40;61.70;;;;;;5050620;28;20025;-84
2022/07/11 07:40:39;;;;;;;12.80;1.27;;;26.40;62.10;;;;;;5051258;28;20456;-83
2022/07/11 07:43:06;;;;;;;2.83;1.23;;;26.50;61.80;;;;;;5033565;28;20087;-83
2022/07/11 07:45:32;;;;;;;3.20;1.10;;;26.50;61.60;;;;;;5051073;28;20028;-82
2022/07/11 07:47:58;;;;;;;1.50;0.68;;;26.50;61.70;;;;;;5047418;28;20024;-83
2022/07/11 07:50:24;;;;;;;0.70;0.50;;;26.60;62.40;;;;;;5046782;28;20477;-84
2022/07/11 07:52:50;;;;;;;2.13;0.85;;;26.70;61.90;;;;;;5051378;28;20033;-85
2022/07/11 07:55:17;;;;;;;1.25;0.70;;;26.70;61.80;;;;;;5051379;28;20027;-85
2022/07/11 07:57:43;;;;;;;6.75;1.20;;;26.80;61.30;;;;;;5051058;28;20024;-83
2022/07/11 08:03:10;;;;;;;1.25;0.60;;;26.80;61.50;;;;;;4960984;28;20035;-83
2022/07/11 08:05:36;;;;;;;1.80;0.93;;;26.80;61.60;;;;;;4966785;28;20049;-83
2022/07/11 08:08:03;;;;;;;1.95;0.70;;;26.90;61.70;;;;;;4961737;28;20114;-82
2022/07/11 08:10:29;;;;;;;1.75;1.00;;;27.00;61.70;;;;;;4981194;28;20481;-84
2022/07/11 08:12:55;;;;;;;3.17;0.63;;;27.00;61.60;;;;;;5048710;28;20029;-78
2022/07/11 08:15:21;;;;;;;2.42;1.08;;;27.10;61.60;;;;;;5043141;28;20025;-78
2022/07/11 08:17:46;;;;;;;1.83;0.50;;;27.10;61.60;;;;;;5039686;28;20065;-78
2022/07/11 08:20:12;;;;;;;2.75;0.70;;;27.30;62.20;;;;;;5042485;28;20075;-81
2022/07/11 08:22:38;;;;;;;3.67;1.10;;;27.30;61.20;;;;;;5049622;28;20112;-76
2022/07/11 08:25:04;;;;;;;2.97;0.85;;;27.30;60.90;;;;;;5051170;28;20094;-77
2022/07/11 08:27:30;;;;;;;3.75;1.13;;;27.40;61.00;;;;;;5050423;28;20779;-77
2022/07/11 08:29:57;;;;;;;1.40;0.70;;;27.50;61.40;;;;;;5044490;28;20021;-78
2022/07/11 08:32:24;;;;;;;1.30;0.75;;;27.60;61.50;;;;;;5047874;28;20052;-79
2022/07/11 08:34:50;;;;;;;1.08;0.57;;;27.60;60.90;;;;;;5049097;28;20035;-79
2022/07/11 08:37:15;;;;;;;2.40;0.70;;;27.60;60.90;;;;;;5042750;28;20024;-78
2022/07/11 08:39:41;;;;;;;0.77;0.60;;;27.70;61.00;;;;;;5048458;28;20055;-77
2022/07/11 08:42:07;;;;;;;0.70;0.60;;;27.70;60.90;;;;;;5045286;28;20036;-78
2022/07/11 08:44:34;;;;;;;2.35;0.77;;;27.70;60.70;;;;;;5047940;28;20087;-78
2022/07/11 08:47:01;;;;;;;2.95;0.80;;;27.80;60.90;;;;;;5053413;28;20116;-78
2022/07/11 08:49:27;;;;;;;1.10;0.70;;;27.80;60.20;;;;;;5056126;28;20033;-77
2022/07/11 08:51:54;;;;;;;1.98;0.82;;;27.80;60.70;;;;;;5057553;28;20025;-78
2022/07/11 08:54:19;;;;;;;2.15;1.05;;;27.90;59.20;;;;;;5051984;28;20043;-78
2022/07/11 08:56:46;;;;;;;3.33;1.05;;;27.80;59.30;;;;;;5052564;28;20064;-78
2022/07/11 08:59:17;;;;;;;2.35;0.75;;;27.80;59.50;;;;;;5053038;28;20064;-78
2022/07/11 09:01:45;;;;;;;1.00;0.50;;;27.90;59.90;;;;;;5053529;28;20112;-78
2022/07/11 09:04:13;;;;;;;1.55;0.95;;;27.90;59.50;;;;;;5052361;28;20025;-80
2022/07/11 09:06:39;;;;;;;2.75;0.98;;;28.10;59.40;;;;;;5057357;28;20029;-78
2022/07/11 09:09:05;;;;;;;0.50;0.50;;;28.10;59.50;;;;;;5046343;28;20048;-77
2022/07/11 09:11:52;;;;;;;2.15;1.35;;;28.10;59.40;;;;;;5049307;28;20064;-77
2022/07/11 09:14:29;;;;;;;3.35;1.08;;;28.20;59.50;;;;;;5048695;28;20056;-77
2022/07/11 09:16:58;;;;;;;1.35;0.88;;;28.30;58.40;;;;;;5048443;28;20033;-77
2022/07/11 09:19:26;;;;;;;1.02;0.65;;;28.30;58.40;;;;;;5044290;28;20493;-77
2022/07/11 09:27:49;;;;;;;0.85;0.70;;;28.50;57.60;;;;;;5047844;28;20095;-78
2022/07/11 09:30:23;;;;;;;2.88;1.10;;;28.60;58.00;;;;;;5044863;28;20404;-78
2022/07/11 09:33:05;;;;;;;2.45;0.65;;;28.60;57.40;;;;;;5048992;28;20401;-78
2022/07/11 09:35:36;;;;;;;1.80;0.80;;;28.60;56.20;;;;;;5050473;28;20548;-78
2022/07/11 09:38:04;;;;;;;1.23;0.80;;;28.60;56.30;;;;;;5048703;28;20025;-78
2022/07/11 09:40:30;;;;;;;2.80;1.33;;;28.70;55.90;;;;;;5050231;28;20488;-78
2022/07/11 09:42:57;;;;;;;3.53;1.10;;;28.70;56.00;;;;;;5052312;28;20106;-78
2022/07/11 09:45:25;;;;;;;1.60;0.70;;;28.80;55.70;;;;;;5049153;28;20080;-78
2022/07/11 09:47:53;;;;;;;3.53;1.15;;;28.90;56.00;;;;;;5046036;28;20056;-79
2022/07/11 09:50:27;;;;;;;1.33;0.63;;;29.00;55.70;;;;;;5043113;28;20048;-80
2022/07/11 09:53:02;;;;;;;2.55;1.00;;;29.00;55.70;;;;;;5043443;28;20087;-82
2022/07/11 09:55:39;;;;;;;6.10;1.00;;;29.20;56.10;;;;;;5046022;28;20501;-81
2022/07/11 09:58:06;;;;;;;1.45;1.00;;;29.30;56.40;;;;;;5045276;28;20545;-81
2022/07/11 10:00:33;;;;;;;4.53;1.85;;;29.30;56.00;;;;;;5049701;28;20078;-82
2022/07/11 10:03:00;;;;;;;1.70;0.93;;;29.30;56.20;;;;;;5046039;28;20029;-82
2022/07/11 10:05:27;;;;;;;1.55;0.93;;;29.40;56.30;;;;;;5026820;28;20512;-82
2022/07/11 10:07:52;;;;;;;2.97;0.95;;;29.40;56.10;;;;;;5045154;28;20041;-82
2022/07/11 10:10:18;;;;;;;1.23;0.68;;;29.60;56.20;;;;;;5049018;28;20487;-81
2022/07/11 10:12:48;;;;;;;3.80;1.25;;;29.60;55.50;;;;;;5049077;28;20099;-82
2022/07/11 10:15:16;;;;;;;1.73;0.80;;;29.60;55.50;;;;;;5045421;28;20053;-82
2022/07/11 10:18:00;;;;;;;2.53;1.30;;;29.60;55.90;;;;;;5047754;28;20757;-82
2022/07/11 10:20:31;;;;;;;5.00;1.35;;;29.50;56.60;;;;;;5026467;28;20588;-81
2022/07/11 10:23:02;;;;;;;2.20;0.80;;;29.60;55.60;;;;;;5049274;28;20033;-82
2022/07/11 10:25:33;;;;;;;2.58;1.05;;;29.60;56.10;;;;;;5043835;28;20028;-82
2022/07/11 10:28:13;;;;;;;2.63;1.05;;;29.60;55.50;;;;;;5040819;28;20033;-82
2022/07/11 10:30:55;;;;;;;1.85;0.80;;;29.60;55.70;;;;;;5040334;28;20034;-82
2022/07/11 10:33:21;;;;;;;1.05;0.70;;;29.70;55.90;;;;;;5036665;28;20107;-81
2022/07/11 10:35:50;;;;;;;2.03;1.02;;;29.80;55.70;;;;;;5039738;28;20021;-82
2022/07/11 10:38:17;;;;;;;3.42;0.85;;;29.90;55.00;;;;;;5037559;28;20478;-84
2022/07/11 10:40:58;;;;;;;2.85;0.82;;;30.00;55.30;;;;;;5042606;28;20029;-84
2022/07/11 10:43:30;;;;;;;1.02;0.77;;;30.10;54.90;;;;;;5038736;28;20037;-84
2022/07/11 10:46:21;;;;;;;3.03;0.65;;;30.10;55.00;;;;;;5036071;28;20053;-83
2022/07/11 10:49:01;;;;;;;3.00;0.95;;;30.20;54.70;;;;;;5042411;28;20040;-84
2022/07/11 10:51:41;;;;;;;1.90;1.00;;;30.20;54.30;;;;;;5035342;28;20120;-84
2022/07/11 10:54:51;;;;;;;2.35;0.70;;;30.20;54.80;;;;;;5035965;28;20025;-84
2022/07/11 10:57:26;;;;;;;;;;;30.30;54.60;;;;;;5039990;28;20029;-84
2022/07/11 10:59:59;;;;;;;1.38;0.60;;;30.30;52.90;;;;;;5045790;28;19909;-84
2022/07/11 11:02:26;;;;;;;1.73;0.85;;;30.40;53.10;;;;;;5037610;28;20476;-83
2022/07/11 11:04:58;;;;;;;0.93;0.57;;;30.60;53.10;;;;;;5041828;28;20032;-83
2022/07/11 11:07:41;;;;;;;4.68;0.90;;;30.70;52.90;;;;;;5043602;28;20026;-84
2022/07/11 11:10:32;;;;;;;2.63;0.77;;;30.90;52.40;;;;;;5045110;28;20382;-83
2022/07/11 11:13:09;;;;;;;2.03;0.60;;;31.10;52.10;;;;;;5020370;28;20417;-81
2022/07/11 11:15:51;;;;;;;1.98;0.98;;;31.20;51.70;;;;;;5045306;28;20466;-81
2022/07/11 11:18:23;;;;;;;3.25;1.00;;;31.30;51.40;;;;;;5042390;28;20029;-81
2022/07/11 11:21:07;;;;;;;1.30;0.65;;;31.20;51.00;;;;;;5046791;28;20040;-81
2022/07/11 11:23:33;;;;;;;1.40;0.70;;;31.30;50.40;;;;;;5048415;28;20362;-81
2022/07/11 11:26:13;;;;;;;3.58;1.08;;;31.50;50.90;;;;;;5042577;28;20036;-85
2022/07/11 11:29:00;;;;;;;2.38;0.82;;;31.60;50.60;;;;;;5044227;28;20369;-84
2022/07/11 11:31:29;;;;;;;2.95;1.10;;;31.90;50.30;;;;;;5046427;28;20041;-84
2022/07/11 11:33:56;;;;;;;2.45;0.95;;;32.00;49.40;;;;;;5047092;28;20053;-84
2022/07/11 11:36:23;;;;;;;2.25;0.80;;;32.30;49.60;;;;;;5042631;28;20075;-84
2022/07/11 11:38:50;;;;;;;2.67;0.73;;;32.70;49.40;;;;;;5038195;28;20031;-83
2022/07/11 11:41:25;;;;;;;2.17;0.50;;;32.90;48.20;;;;;;5034262;28;20068;-80
2022/07/11 11:43:58;;;;;;;1.50;0.73;;;33.10;47.90;;;;;;5044155;28;20044;-83
2022/07/11 11:46:26;;;;;;;2.15;0.80;;;33.40;47.40;;;;;;5044997;28;20025;-82
2022/07/11 11:49:00;;;;;;;2.63;0.70;;;33.90;46.50;;;;;;5034559;28;20029;-81
2022/07/11 11:51:30;;;;;;;2.85;1.15;;;34.30;44.80;;;;;;5037362;28;20999;-83
2022/07/11 11:54:00;;;;;;;2.25;0.70;;;34.60;45.40;;;;;;5033939;28;20129;-83
2022/07/11 11:56:35;;;;;;;3.22;0.68;;;34.90;44.90;;;;;;5038562;28;20089;-83
2022/07/11 11:59:12;;;;;;;2.08;0.65;;;35.10;44.60;;;;;;5039213;28;20029;-86
2022/07/11 12:01:39;;;;;;;1.77;1.10;;;35.40;44.30;;;;;;5036783;28;20040;-83
2022/07/11 12:04:08;;;;;;;3.70;1.20;;;35.50;43.50;;;;;;5047331;28;20031;-83
2022/07/11 12:06:37;;;;;;;2.47;1.00;;;35.60;42.90;;;;;;5041194;28;20032;-83
2022/07/11 12:09:12;;;;;;;3.08;0.70;;;35.60;42.00;;;;;;5038898;28;20029;-83
2022/07/11 12:11:41;;;;;;;5.80;1.30;;;35.50;42.70;;;;;;5037927;28;20029;-84
2022/07/11 12:14:09;;;;;;;2.45;1.13;;;35.60;42.30;;;;;;5048049;28;20381;-85
2022/07/11 12:16:42;;;;;;;3.92;0.60;;;35.50;42.00;;;;;;5038741;28;20036;-82
2022/07/11 12:19:12;;;;;;;4.15;0.88;;;35.70;42.40;;;;;;5039938;28;20048;-81
2022/07/11 12:21:39;;;;;;;4.78;2.58;;;36.00;42.30;;;;;;5046979;28;20045;-82
2022/07/11 12:24:08;;;;;;;2.63;0.50;;;35.90;41.30;;;;;;5043195;28;20029;-82
2022/07/11 12:26:37;;;;;;;2.33;0.70;;;36.00;41.30;;;;;;5041124;28;20059;-82
2022/07/11 12:29:16;;;;;;;2.43;0.87;;;36.10;41.60;;;;;;5052788;28;20031;-83
2022/07/11 12:31:46;;;;;;;2.75;0.95;;;36.00;40.70;;;;;;5054383;28;20067;-82
2022/07/11 12:34:12;;;;;;;1.75;0.90;;;35.90;41.70;;;;;;5046945;28;20587;-83
2022/07/11 12:36:38;;;;;;;2.40;0.70;;;35.90;41.40;;;;;;5045906;28;20033;-83
2022/07/11 12:39:04;;;;;;;2.88;0.88;;;35.70;41.70;;;;;;5046131;28;20025;-80
2022/07/11 12:41:34;;;;;;;2.72;0.95;;;35.60;42.60;;;;;;5051331;28;20037;-86
2022/07/11 12:46:49;;;;;;;2.95;0.90;;;35.50;41.90;;;;;;5053934;28;19966;-85
2022/07/11 12:49:17;;;;;;;2.90;0.95;;;35.80;42.10;;;;;;5039860;28;20044;-85
2022/07/11 12:51:46;;;;;;;3.47;0.75;;;36.00;42.60;;;;;;5038565;28;20029;-86
2022/07/11 12:54:14;;;;;;;3.25;1.05;;;35.90;42.00;;;;;;5056322;28;20025;-86
2022/07/11 12:56:54;;;;;;;5.78;1.02;;;36.10;42.10;;;;;;5055987;28;20091;-86
2022/07/11 12:59:21;;;;;;;3.78;0.82;;;35.90;42.30;;;;;;5047892;28;20055;-83
2022/07/11 13:02:08;;;;;;;1.65;0.90;;;36.00;42.40;;;;;;5044902;28;20062;-83
2022/07/11 13:04:38;;;;;;;3.83;0.90;;;36.20;42.00;;;;;;5041312;28;20037;-83
2022/07/11 13:10:08;;;;;;;2.45;1.00;;;36.10;41.40;;;;;;5036179;28;20125;-83